Time;durP1;ratioP1;P1;durP2;ratioP2;P2;SDS_P1;SDS_P2;PMS_P1;PMS_P2;Temp;Humidity;BMP_temperature;BMP_pressure;BME280_temperature;BME280_humidity;BME280_pressure;Samples;Min_cycle;Max_cycle;Signal;HPM_P1;HPM_P2
2022/08/17 00:00:00;;;;;;;11.50;6.60;;;;;;;21.82;59.98;99800.00;117145;1186;23643;-59
2022/08/17 00:02:27;;;;;;;7.00;6.30;;;;;;;21.82;60.14;99794.66;117169;1187;22776;-67
2022/08/17 00:04:56;;;;;;;7.50;6.70;;;;;;;21.80;60.14;99793.33;117186;1185;23471;-67
2022/08/17 00:07:23;;;;;;;8.10;6.80;;;;;;;21.80;60.09;99794.13;117181;1186;24162;-67
2022/08/17 00:09:50;;;;;;;10.70;6.90;;;;;;;21.77;60.06;99786.41;117238;1186;23657;-68
2022/08/17 00:12:18;;;;;;;8.50;7.00;;;;;;;21.72;60.15;99780.18;117343;1186;21844;-67
2022/08/17 00:15:06;;;;;;;8.90;7.00;;;;;;;21.68;60.11;99776.48;117157;1182;23566;-59
2022/08/17 00:17:36;;;;;;;8.10;7.30;;;;;;;21.67;59.88;99780.15;117270;1186;21858;-67
2022/08/17 00:20:04;;;;;;;8.10;7.20;;;;;;;21.57;60.04;99783.06;117120;1182;23592;-67
2022/08/17 00:22:31;;;;;;;8.40;7.50;;;;;;;21.52;60.21;99782.70;117265;1185;22911;-60
2022/08/17 00:25:08;;;;;;;9.40;7.80;;;;;;;21.48;60.31;99785.30;116985;1187;21861;-67
2022/08/17 00:27:35;;;;;;;9.10;8.10;;;;;;;21.43;60.39;99781.91;117141;1189;21861;-60
2022/08/17 00:30:04;;;;;;;8.40;7.60;;;;;;;21.41;60.56;99777.91;117340;1186;21857;-60
2022/08/17 00:32:43;;;;;;;9.10;8.20;;;;;;;21.40;60.68;99775.66;117158;1183;24258;-60
2022/08/17 00:35:30;;;;;;;8.90;7.80;;;;;;;21.44;60.77;99775.05;117277;1186;21924;-62
2022/08/17 00:37:57;;;;;;;10.80;8.40;;;;;;;21.45;60.70;99774.79;117161;1186;23572;-67
2022/08/17 00:40:23;;;;;;;9.40;7.60;;;;;;;21.45;60.61;99775.73;117199;1186;24172;-67
2022/08/17 00:42:52;;;;;;;9.30;7.60;;;;;;;21.42;60.59;99780.89;117168;1186;22911;-59
2022/08/17 00:45:19;;;;;;;8.50;7.00;;;;;;;21.40;60.59;99780.65;117206;1186;21862;-66
2022/08/17 00:47:46;;;;;;;8.70;7.80;;;;;;;21.44;60.31;99784.55;117152;1188;23551;-67
2022/08/17 00:50:16;;;;;;;9.40;7.50;;;;;;;21.45;60.27;99789.77;117125;1183;22650;-67
2022/08/17 00:52:47;;;;;;;8.90;7.50;;;;;;;21.43;60.30;99793.52;117206;1182;21876;-67
2022/08/17 00:55:14;;;;;;;9.90;7.80;;;;;;;21.38;60.55;99792.95;117181;1186;21989;-60
2022/08/17 00:57:43;;;;;;;10.20;7.60;;;;;;;21.39;60.69;99794.10;117331;1183;23605;-60
2022/08/17 01:00:25;;;;;;;8.80;7.30;;;;;;;21.46;60.60;99790.95;117222;1186;23554;-59
2022/08/17 01:03:12;;;;;;;9.20;7.50;;;;;;;21.47;60.50;99790.59;117159;1186;24184;-67
2022/08/17 01:05:40;;;;;;;8.00;7.20;;;;;;;21.41;60.56;99792.00;117280;1186;24246;-60
2022/08/17 01:08:10;;;;;;;8.80;7.40;;;;;;;21.37;60.65;99789.80;117027;1189;21867;-67
2022/08/17 01:10:45;;;;;;;9.20;7.50;;;;;;;21.38;60.82;99787.79;117122;1188;23579;-59
2022/08/17 01:13:30;;;;;;;8.90;7.10;;;;;;;21.37;60.82;99785.31;117139;1188;21867;-67
2022/08/17 01:16:17;;;;;;;9.10;8.20;;;;;;;21.37;60.76;99786.92;117096;1187;22898;-59
2022/08/17 01:18:46;;;;;;;10.00;9.00;;;;;;;21.37;60.71;99785.36;117192;1186;22927;-59
2022/08/17 01:21:32;;;;;;;8.10;7.20;;;;;;;21.30;60.65;99779.75;117192;1186;21869;-67
2022/08/17 01:23:59;;;;;;;9.40;8.40;;;;;;;21.21;60.64;99779.27;117174;1186;22926;-59
2022/08/17 01:26:27;;;;;;;10.80;7.90;;;;;;;21.16;60.67;99785.29;117177;1183;23556;-67
2022/08/17 01:28:54;;;;;;;12.40;8.60;;;;;;;21.11;60.71;99788.48;117255;1186;23454;-67
2022/08/17 01:31:23;;;;;;;11.30;7.50;;;;;;;21.02;60.75;99786.74;117091;1188;23570;-67
2022/08/17 01:33:50;;;;;;;9.10;8.30;;;;;;;20.94;60.82;99780.48;117213;1188;22928;-60
2022/08/17 01:36:17;;;;;;;9.10;8.20;;;;;;;20.90;60.84;99776.11;117161;1188;23660;-62
2022/08/17 01:38:44;;;;;;;10.90;8.90;;;;;;;20.89;60.95;99779.94;117167;1186;22928;-61
2022/08/17 01:41:13;;;;;;;9.90;8.90;;;;;;;20.90;61.19;99787.35;117212;1183;24614;-59
2022/08/17 01:43:44;;;;;;;9.40;8.50;;;;;;;20.91;61.28;99789.41;117392;1182;21854;-59
2022/08/17 01:46:14;;;;;;;9.20;8.30;;;;;;;20.94;61.48;99786.21;117212;1183;22973;-60
2022/08/17 01:48:42;;;;;;;10.70;9.10;;;;;;;20.98;61.58;99784.50;117227;1186;22835;-67
2022/08/17 01:51:09;;;;;;;12.50;8.60;;;;;;;21.05;61.62;99780.88;117155;1183;23577;-59
2022/08/17 01:53:38;;;;;;;11.30;9.30;;;;;;;21.10;61.56;99778.55;117141;1183;22909;-67
2022/08/17 01:56:09;;;;;;;9.30;8.20;;;;;;;21.15;61.46;99769.33;117151;1182;23452;-68
2022/08/17 01:58:37;;;;;;;10.00;8.60;;;;;;;21.18;61.31;99763.04;117225;1182;21864;-67
2022/08/17 02:01:04;;;;;;;11.90;8.50;;;;;;;21.18;61.14;99762.67;117246;1186;21866;-58
2022/08/17 02:03:33;;;;;;;9.50;8.40;;;;;;;21.16;61.06;99763.36;117144;1182;22928;-67
2022/08/17 02:06:01;;;;;;;8.90;7.60;;;;;;;21.10;61.02;99762.49;116899;1188;21882;-67
2022/08/17 02:08:34;;;;;;;8.70;7.90;;;;;;;21.03;61.01;99766.38;117233;1182;23564;-67
2022/08/17 02:11:21;;;;;;;9.00;7.20;;;;;;;20.95;61.02;99771.88;117024;1187;21847;-59
2022/08/17 02:13:49;;;;;;;9.10;7.40;;;;;;;20.88;61.06;99774.78;117198;1186;21888;-59
2022/08/17 02:16:33;;;;;;;8.60;7.40;;;;;;;20.85;61.19;99775.03;117266;1185;21904;-59
2022/08/17 02:19:05;;;;;;;10.70;8.20;;;;;;;20.83;61.33;99777.83;117110;1186;22108;-59
2022/08/17 02:21:33;;;;;;;9.40;8.00;;;;;;;20.78;61.41;99782.91;117174;1187;21859;-58
2022/08/17 02:24:00;;;;;;;10.30;8.10;;;;;;;20.75;61.51;99779.15;117219;1186;23643;-58
2022/08/17 02:26:27;;;;;;;9.20;7.90;;;;;;;20.77;61.53;99774.43;117179;1189;22822;-59
2022/08/17 02:28:54;;;;;;;8.60;7.60;;;;;;;20.80;61.61;99771.75;117221;1186;22636;-58
2022/08/17 02:31:21;;;;;;;9.20;8.10;;;;;;;20.86;61.49;99772.59;117198;1181;24206;-58
2022/08/17 02:33:48;;;;;;;9.30;7.60;;;;;;;20.89;61.34;99776.70;116888;1187;23589;-59
2022/08/17 02:36:33;;;;;;;10.40;8.60;;;;;;;20.88;61.25;99775.84;117030;1188;21880;-58
2022/08/17 02:39:06;;;;;;;12.40;8.60;;;;;;;20.86;61.26;99774.02;117533;1186;21870;-59
2022/08/17 02:41:33;;;;;;;9.80;7.90;;;;;;;20.85;61.33;99770.70;117106;1183;21892;-59
2022/08/17 02:44:01;;;;;;;12.60;8.70;;;;;;;20.86;61.33;99774.55;117061;1186;24294;-58
2022/08/17 02:46:29;;;;;;;10.30;8.60;;;;;;;20.89;61.32;99782.03;117231;1187;21867;-58
2022/08/17 02:48:58;;;;;;;10.90;8.90;;;;;;;20.91;61.44;99788.31;117457;1189;23577;-67
2022/08/17 02:51:26;;;;;;;12.10;8.90;;;;;;;20.95;61.49;99789.52;117364;1186;23560;-66
2022/08/17 02:53:54;;;;;;;10.10;9.00;;;;;;;20.97;61.39;99789.04;117139;1183;22931;-66
2022/08/17 02:56:41;;;;;;;15.30;9.40;;;;;;;20.91;61.67;99791.94;117770;1183;22928;-66
2022/08/17 02:59:08;;;;;;;11.10;9.10;;;;;;;20.95;61.66;99794.52;117133;1186;23453;-58
2022/08/17 03:01:35;;;;;;;9.90;8.70;;;;;;;20.95;61.65;99793.96;117078;1187;22848;-58
2022/08/17 03:04:03;;;;;;;10.00;9.00;;;;;;;20.89;61.88;99791.34;117123;1188;21876;-62
2022/08/17 03:06:30;;;;;;;9.90;8.50;;;;;;;20.89;62.01;99790.45;117111;1189;22806;-59
2022/08/17 03:08:57;;;;;;;12.20;9.40;;;;;;;20.89;61.96;99787.73;117493;1186;24170;-67
2022/08/17 03:11:24;;;;;;;9.80;8.90;;;;;;;20.90;61.98;99786.61;117303;1186;22912;-66
2022/08/17 03:13:52;;;;;;;10.10;8.90;;;;;;;20.90;62.05;99788.38;117272;1183;24172;-59
2022/08/17 03:16:22;;;;;;;13.10;9.20;;;;;;;20.91;62.11;99785.67;117337;1185;24204;-59
2022/08/17 03:18:49;;;;;;;12.80;8.70;;;;;;;20.94;62.19;99783.36;117218;1186;21919;-67
2022/08/17 03:21:15;;;;;;;14.20;8.70;;;;;;;21.00;62.07;99783.10;117279;1183;24284;-67
2022/08/17 03:23:42;;;;;;;11.20;9.00;;;;;;;21.06;62.05;99780.26;117290;1188;24161;-59
2022/08/17 03:26:10;;;;;;;10.50;9.00;;;;;;;21.09;61.96;99782.90;117297;1186;21854;-59
2022/08/17 03:28:41;;;;;;;10.70;9.30;;;;;;;21.14;61.94;99784.19;117127;1182;21861;-67
2022/08/17 03:31:08;;;;;;;14.00;9.60;;;;;;;21.15;61.93;99786.29;117192;1182;23579;-67
2022/08/17 03:33:35;;;;;;;10.60;9.50;;;;;;;21.16;61.99;99793.32;117349;1186;22848;-66
2022/08/17 03:36:03;;;;;;;11.80;10.30;;;;;;;21.19;62.02;99794.55;117209;1182;23483;-59
2022/08/17 03:38:30;;;;;;;11.10;10.00;;;;;;;21.26;61.90;99801.24;117159;1187;22815;-59
2022/08/17 03:41:05;;;;;;;13.30;9.80;;;;;;;21.32;61.77;99802.62;117240;1186;21875;-59
2022/08/17 03:43:33;;;;;;;10.70;9.10;;;;;;;21.34;61.59;99801.08;117252;1186;22811;-67
2022/08/17 03:57:21;;;;;;;11.10;10.00;;;;;;;21.50;62.09;99794.98;117132;1183;23558;-66
2022/08/17 03:59:48;;;;;;;10.30;9.20;;;;;;;21.55;62.06;99796.98;117140;1186;22907;-67
2022/08/17 04:02:24;;;;;;;13.00;10.00;;;;;;;21.61;62.13;99793.05;117192;1182;23696;-67
2022/08/17 04:04:53;;;;;;;13.70;9.80;;;;;;;21.70;62.31;99794.41;117106;1186;21876;-60
2022/08/17 04:07:21;;;;;;;13.30;9.90;;;;;;;21.79;62.38;99792.73;117181;1186;21863;-59
2022/08/17 04:09:48;;;;;;;13.20;11.60;;;;;;;21.86;62.33;99793.14;117170;1186;21860;-60
2022/08/17 04:12:16;;;;;;;12.60;10.10;;;;;;;21.95;62.33;99793.45;117108;1189;22047;-68
2022/08/17 04:14:44;;;;;;;12.50;11.20;;;;;;;22.00;62.36;99795.58;117148;1186;22994;-67
2022/08/17 04:17:23;;;;;;;9.90;8.90;;;;;;;22.05;62.63;99793.96;117148;1187;22188;-60
2022/08/17 04:19:50;;;;;;;13.70;10.10;;;;;;;22.14;62.73;99791.39;117359;1186;21859;-67
2022/08/17 04:22:17;;;;;;;11.50;10.00;;;;;;;22.23;62.68;99792.01;117345;1182;23585;-66
2022/08/17 04:25:14;;;;;;;10.50;9.50;;;;;;;22.35;62.68;99794.55;117286;1184;23063;-66
2022/08/17 04:27:42;;;;;;;13.40;9.40;;;;;;;22.47;62.87;99798.91;116963;1186;23581;-67
2022/08/17 04:30:09;;;;;;;17.90;10.00;;;;;;;22.60;63.11;99798.35;117190;1186;21907;-67
2022/08/17 04:33:13;;;;;;;10.90;9.30;;;;;;;22.76;63.13;99794.19;117196;1182;23596;-60
2022/08/17 04:35:42;;;;;;;11.40;9.60;;;;;;;22.95;62.98;99787.08;117194;1186;21954;-67
2022/08/17 04:38:10;;;;;;;12.90;11.40;;;;;;;23.09;62.77;99787.99;117206;1186;24164;-60
2022/08/17 04:43:24;;;;;;;18.00;15.30;;;;;;;23.31;62.97;99787.52;117157;1183;22926;-60
2022/08/17 04:45:53;;;;;;;15.90;13.00;;;;;;;23.44;63.00;99780.61;117111;1182;24181;-60
2022/08/17 04:48:27;;;;;;;12.90;11.30;;;;;;;23.57;62.82;99787.52;117170;1186;21861;-67
2022/08/17 04:51:04;;;;;;;12.40;11.10;;;;;;;23.71;62.85;99789.19;117125;1182;21871;-66
2022/08/17 04:53:31;;;;;;;12.20;10.60;;;;;;;23.90;62.73;99786.13;117151;1187;22931;-66
2022/08/17 04:55:58;;;;;;;11.20;10.00;;;;;;;24.06;62.35;99789.38;117207;1182;22950;-66
2022/08/17 04:58:25;;;;;;;10.90;9.80;;;;;;;24.22;62.54;99790.26;117261;1186;22663;-59
2022/08/17 05:00:52;;;;;;;12.80;9.00;;;;;;;24.37;62.55;99794.98;117393;1185;22999;-66
2022/08/17 05:03:19;;;;;;;9.90;8.80;;;;;;;24.51;62.64;99789.95;117240;1186;21856;-66
2022/08/17 05:05:48;;;;;;;10.30;9.30;;;;;;;24.69;62.49;99788.52;117048;1187;22648;-58
2022/08/17 05:08:17;;;;;;;9.60;8.60;;;;;;;24.82;62.30;99787.18;117119;1186;22932;-59
2022/08/17 05:10:44;;;;;;;9.90;8.90;;;;;;;24.94;62.29;99787.47;117098;1183;22638;-58
2022/08/17 05:13:22;;;;;;;9.80;8.80;;;;;;;25.04;62.35;99789.48;117087;1187;21858;-66
2022/08/17 05:15:55;;;;;;;10.10;8.80;;;;;;;25.16;62.52;99788.84;117269;1182;22645;-59
2022/08/17 05:18:22;;;;;;;11.20;8.90;;;;;;;25.35;62.74;99782.81;117099;1187;21880;-59
2022/08/17 05:20:50;;;;;;;9.60;8.00;;;;;;;25.56;62.70;99776.98;117107;1187;22965;-59
2022/08/17 05:23:19;;;;;;;10.70;8.60;;;;;;;25.71;62.25;99776.78;117279;1186;22930;-66
2022/08/17 05:25:48;;;;;;;10.60;8.90;;;;;;;25.83;62.30;99776.98;117211;1186;22714;-59
2022/08/17 05:28:16;;;;;;;8.80;7.80;;;;;;;25.97;62.26;99777.38;117137;1187;22173;-66
2022/08/17 05:30:46;;;;;;;8.70;7.30;;;;;;;26.11;62.30;99783.42;117329;1186;21871;-66
2022/08/17 05:33:20;;;;;;;9.80;7.70;;;;;;;26.18;62.65;99780.48;117322;1185;23509;-67
2022/08/17 05:35:48;;;;;;;9.90;8.10;;;;;;;26.39;62.74;99783.66;116990;1183;23603;-67
2022/08/17 05:38:17;;;;;;;11.70;8.40;;;;;;;26.58;62.51;99783.59;117114;1186;21852;-65
2022/08/17 05:40:44;;;;;;;9.70;8.20;;;;;;;26.80;62.64;99783.65;117141;1182;23638;-66
2022/08/17 05:43:11;;;;;;;10.10;8.50;;;;;;;27.04;62.54;99777.91;117062;1188;22628;-66
2022/08/17 05:45:48;;;;;;;8.50;7.60;;;;;;;27.24;62.27;99775.00;117120;1182;23652;-67
2022/08/17 05:48:23;;;;;;;9.60;7.40;;;;;;;27.44;62.16;99769.23;117104;1187;21851;-67
2022/08/17 05:51:25;;;;;;;8.50;7.50;;;;;;;27.70;61.64;99768.89;116971;1187;21876;-67
2022/08/17 05:54:07;;;;;;;8.00;7.10;;;;;;;27.87;61.23;99765.73;116981;1186;22633;-59
2022/08/17 05:56:46;;;;;;;9.40;7.50;;;;;;;28.01;60.91;99763.37;117117;1187;22870;-60
2022/08/17 05:59:43;;;;;;;8.70;7.00;;;;;;;28.20;61.07;99760.88;117147;1181;21858;-60
2022/08/17 06:02:19;;;;;;;7.70;6.70;;;;;;;28.37;60.53;99763.27;117065;1186;22941;-60
2022/08/17 06:04:49;;;;;;;11.20;6.60;;;;;;;28.48;60.33;99766.48;117063;1182;21864;-60
2022/08/17 06:07:31;;;;;;;6.90;6.00;;;;;;;28.57;59.75;99767.23;117240;1183;21867;-60
2022/08/17 06:10:01;;;;;;;9.40;6.00;;;;;;;28.62;59.49;99770.00;117070;1185;23580;-66
2022/08/17 06:12:45;;;;;;;6.00;5.00;;;;;;;28.73;59.67;99771.12;117117;1188;23068;-67
2022/08/17 06:15:38;;;;;;;6.90;5.30;;;;;;;28.92;59.73;99771.79;117153;1183;22633;-67
2022/08/17 06:18:07;;;;;;;6.00;5.40;;;;;;;29.21;59.30;99776.16;117171;1182;21857;-67
2022/08/17 06:20:41;;;;;;;7.60;5.50;;;;;;;29.37;58.45;99776.71;117058;1182;23556;-66
2022/08/17 06:23:11;;;;;;;7.00;4.90;;;;;;;29.36;58.13;99774.99;117255;1186;22100;-66
2022/08/17 06:25:43;;;;;;;8.90;6.10;;;;;;;29.42;58.44;99770.77;117237;1186;21859;-66
2022/08/17 06:28:13;;;;;;;7.10;5.00;;;;;;;29.62;58.54;99767.16;117002;1187;21863;-67
2022/08/17 06:30:47;;;;;;;9.80;5.70;;;;;;;29.90;58.60;99765.39;117041;1184;23491;-66
2022/08/17 06:33:35;;;;;;;6.30;5.10;;;;;;;30.18;58.06;99766.48;116932;1188;21858;-67
2022/08/17 06:36:14;;;;;;;6.60;5.30;;;;;;;30.43;57.97;99771.66;117040;1186;23713;-67
2022/08/17 06:38:54;;;;;;;8.40;5.90;;;;;;;30.62;57.35;99777.33;117116;1188;21870;-60
2022/08/17 06:41:50;;;;;;;7.10;5.00;;;;;;;30.75;57.20;99782.47;117054;1183;23484;-60
2022/08/17 06:44:26;;;;;;;7.00;4.70;;;;;;;30.89;57.05;99789.09;117205;1186;22930;-60
2022/08/17 06:47:35;;;;;;;6.80;4.50;;;;;;;31.17;56.63;99789.73;116974;1182;21875;-60
2022/08/17 06:50:06;;;;;;;6.60;4.70;;;;;;;31.41;56.03;99791.64;117212;1185;22632;-60
2022/08/17 06:52:34;;;;;;;;;;;;;;;31.62;55.93;99795.34;117024;1182;23462;-60
2022/08/17 06:55:25;;;;;;;7.00;4.50;;;;;;;31.73;55.18;99794.69;116951;1189;21854;-60
2022/08/17 06:57:54;;;;;;;5.60;4.40;;;;;;;31.79;55.46;99794.38;117139;1183;21858;-60
2022/08/17 07:00:23;;;;;;;5.50;4.30;;;;;;;32.00;55.56;99797.64;117128;1186;21862;-60
2022/08/17 07:02:55;;;;;;;6.60;4.40;;;;;;;32.16;54.73;99802.13;117148;1186;21865;-61
2022/08/17 07:05:58;;;;;;;6.90;4.90;;;;;;;32.14;54.28;99805.40;117166;1185;21921;-61
2022/08/17 07:08:41;;;;;;;6.40;5.30;;;;;;;32.18;54.48;99803.83;117080;1188;21867;-60
2022/08/17 07:11:12;;;;;;;7.20;5.40;;;;;;;32.30;54.23;99803.07;118041;1187;21848;-67
2022/08/17 07:13:57;;;;;;;;;;;;;;;32.52;54.49;99802.96;117168;1187;22286;-68
2022/08/17 07:16:41;;;;;;;6.80;5.00;;;;;;;32.84;54.69;99801.66;117031;1187;22100;-60
2022/08/17 07:19:08;;;;;;;6.70;5.10;;;;;;;33.15;54.57;99798.80;117024;1184;22651;-61
2022/08/17 07:21:40;;;;;;;8.90;5.30;;;;;;;33.48;54.39;99797.19;117029;1186;22112;-61
2022/08/17 07:24:26;;;;;;;7.80;4.80;;;;;;;33.80;54.26;99793.77;117094;1183;22815;-60
2022/08/17 07:27:03;;;;;;;8.90;5.10;;;;;;;34.15;53.79;99792.05;117192;1186;21857;-68
2022/08/17 07:29:31;;;;;;;8.10;5.30;;;;;;;34.39;53.39;99793.16;117079;1186;23761;-68
2022/08/17 07:31:58;;;;;;;7.40;4.80;;;;;;;34.54;53.02;99788.21;117018;1187;22909;-61
2022/08/17 07:34:26;;;;;;;8.50;5.20;;;;;;;34.69;53.15;99785.11;117118;1183;24165;-67
2022/08/17 07:37:02;;;;;;;6.50;4.70;;;;;;;34.86;52.06;99782.70;117120;1185;21894;-61
2022/08/17 07:39:29;;;;;;;5.80;4.50;;;;;;;34.80;51.85;99785.08;117133;1187;22928;-67
2022/08/17 07:42:02;;;;;;;5.40;4.60;;;;;;;34.84;51.98;99785.84;117286;1184;21850;-67
2022/08/17 07:44:29;;;;;;;5.00;4.50;;;;;;;34.94;51.65;99784.23;117204;1183;23478;-68
2022/08/17 07:49:45;;;;;;;4.70;4.00;;;;;;;35.20;50.70;99777.20;117000;1185;22944;-67
2022/08/17 07:52:28;;;;;;;5.70;4.80;;;;;;;35.25;49.95;99773.88;117178;1183;21950;-61
2022/08/17 07:55:39;;;;;;;5.20;4.70;;;;;;;35.45;50.35;99769.63;117146;1188;23379;-67
2022/08/17 07:58:06;;;;;;;4.80;4.20;;;;;;;35.61;49.84;99765.13;117165;1186;21888;-66
2022/08/17 08:00:33;;;;;;;6.30;4.20;;;;;;;35.49;49.49;99767.14;117246;1186;21852;-62
2022/08/17 08:03:35;;;;;;;5.20;4.40;;;;;;;35.52;49.69;99765.88;117093;1185;22630;-62
2022/08/17 08:06:20;;;;;;;5.00;3.70;;;;;;;35.71;49.82;99766.67;117128;1188;22838;-61
2022/08/17 08:08:53;;;;;;;4.90;4.30;;;;;;;35.92;49.36;99767.16;117193;1183;23576;-67
2022/08/17 08:11:31;;;;;;;6.10;4.80;;;;;;;36.02;49.30;99761.31;117357;1186;23575;-68
2022/08/17 08:14:23;;;;;;;8.30;4.30;;;;;;;36.15;49.23;99761.44;117380;1182;22969;-68
2022/08/17 08:16:59;;;;;;;7.30;3.90;;;;;;;36.43;48.93;99757.71;117164;1186;21868;-67
2022/08/17 08:19:27;;;;;;;6.80;4.40;;;;;;;36.73;48.62;99756.40;117216;1182;23566;-61
2022/08/17 08:22:06;;;;;;;6.10;4.70;;;;;;;36.84;47.48;99761.29;117264;1186;22360;-62
2022/08/17 08:24:57;;;;;;;6.40;4.30;;;;;;;36.73;47.34;99766.30;117362;1186;21860;-67
2022/08/17 08:27:29;;;;;;;5.20;3.90;;;;;;;36.80;46.02;99767.84;117375;1182;23600;-68
2022/08/17 08:30:05;;;;;;;7.70;4.20;;;;;;;36.81;46.45;99766.80;117338;1182;23491;-62
2022/08/17 08:33:16;;;;;;;6.00;3.90;;;;;;;36.91;46.46;99764.66;117208;1185;22676;-62
2022/08/17 08:36:36;;;;;;;5.70;4.30;;;;;;;37.00;46.39;99765.67;117307;1183;23380;-62
2022/08/17 08:39:30;;;;;;;4.80;4.00;;;;;;;37.37;46.85;99768.36;117335;1185;22931;-62
2022/08/17 08:42:22;;;;;;;7.30;4.30;;;;;;;37.64;46.55;99768.42;117353;1186;22918;-62
2022/08/17 08:44:57;;;;;;;5.10;4.00;;;;;;;37.89;44.44;99764.02;117312;1186;22983;-63
2022/08/17 08:47:52;;;;;;;5.60;4.10;;;;;;;37.99;45.69;99763.41;117318;1185;23495;-68
2022/08/17 08:50:30;;;;;;;6.20;4.40;;;;;;;38.21;45.49;99763.05;117328;1186;22003;-68
2022/08/17 08:53:22;;;;;;;6.80;4.70;;;;;;;38.42;44.91;99765.11;117359;1186;21858;-62
2022/08/17 08:55:49;;;;;;;5.80;4.40;;;;;;;38.49;44.95;99771.05;117356;1184;22494;-62
2022/08/17 08:58:39;;;;;;;7.00;4.40;;;;;;;38.65;44.86;99768.98;117352;1185;22938;-63
2022/08/17 09:01:23;;;;;;;6.10;4.20;;;;;;;38.82;43.45;99769.17;117337;1185;21855;-63
2022/08/17 09:04:02;;;;;;;6.00;4.50;;;;;;;38.61;43.14;99771.92;117109;1187;24238;-62
2022/08/17 09:07:01;;;;;;;5.70;4.30;;;;;;;38.55;43.85;99769.85;117131;1186;22253;-68
2022/08/17 09:09:47;;;;;;;8.30;4.70;;;;;;;38.72;44.24;99768.04;117134;1186;23641;-63
2022/08/17 09:12:24;;;;;;;5.90;4.10;;;;;;;39.02;44.32;99768.04;117295;1183;23557;-63
2022/08/17 09:15:21;;;;;;;6.90;4.60;;;;;;;39.21;43.82;99759.96;117162;1185;21904;-62
2022/08/17 09:18:03;;;;;;;6.40;4.60;;;;;;;39.17;42.97;99760.11;117112;1186;22625;-62
2022/08/17 09:20:54;;;;;;;5.00;4.40;;;;;;;38.93;43.07;99762.59;117238;1185;22084;-68
2022/08/17 09:23:31;;;;;;;6.00;4.40;;;;;;;38.70;42.49;99760.25;117306;1182;22945;-62
2022/08/17 09:26:21;;;;;;;7.00;4.90;;;;;;;38.41;41.80;99761.98;117096;1185;21898;-63
2022/08/17 09:28:51;;;;;;;6.20;4.70;;;;;;;38.14;41.70;99753.52;117360;1186;22931;-68
2022/08/17 09:31:21;;;;;;;5.30;4.50;;;;;;;38.10;42.38;99749.55;117175;1189;21858;-68
2022/08/17 09:33:47;;;;;;;;;;;;;;;38.27;42.59;99746.25;117157;1184;24801;-62
2022/08/17 09:36:20;;;;;;;7.00;4.60;;;;;;;38.53;42.65;99743.38;117178;1186;23451;-68
2022/08/17 09:39:10;;;;;;;7.20;4.10;;;;;;;38.84;42.60;99748.98;117172;1186;21866;-63
2022/08/17 09:42:01;;;;;;;5.20;4.70;;;;;;;39.27;42.12;99748.08;117109;1182;22624;-68
2022/08/17 09:45:07;;;;;;;6.20;4.20;;;;;;;39.76;42.09;99745.27;117323;1188;22916;-68
2022/08/17 09:47:45;;;;;;;5.50;4.50;;;;;;;40.20;41.52;99744.08;117190;1183;22944;-60
2022/08/17 09:50:19;;;;;;;7.30;4.70;;;;;;;40.45;39.42;99737.64;117179;1188;21962;-61
2022/08/17 09:53:06;;;;;;;7.20;4.70;;;;;;;40.31;38.16;99740.31;117271;1186;24175;-66
2022/08/17 09:55:36;;;;;;;9.80;7.10;;;;;;;40.04;40.65;99741.29;117146;1186;21867;-65
2022/08/17 09:58:10;;;;;;;7.40;5.30;;;;;;;40.09;40.89;99743.78;117306;1186;23560;-61
2022/08/17 10:00:42;;;;;;;5.70;5.10;;;;;;;40.24;40.15;99740.44;117096;1187;23032;-66
2022/08/17 10:03:28;;;;;;;5.50;4.10;;;;;;;40.18;39.46;99742.16;116903;1187;23217;-62
2022/08/17 10:06:18;;;;;;;5.80;4.90;;;;;;;39.98;39.83;99747.55;117290;1186;24206;-63
2022/08/17 10:09:03;;;;;;;5.90;4.60;;;;;;;39.88;40.27;99752.31;117153;1187;21967;-63
2022/08/17 10:12:15;;;;;;;6.30;4.50;;;;;;;39.75;40.34;99745.27;117160;1183;22928;-67
2022/08/17 10:15:05;;;;;;;6.10;3.70;;;;;;;39.72;40.49;99740.63;116914;1188;21859;-63
2022/08/17 10:18:03;;;;;;;8.10;4.60;;;;;;;39.95;40.57;99737.32;117368;1183;23001;-67
2022/08/17 10:20:36;;;;;;;8.10;4.80;;;;;;;40.08;37.93;99735.17;117170;1182;24358;-67
2022/08/17 10:26:14;;;;;;;6.20;4.90;;;;;;;39.76;37.54;99737.45;117041;1184;23559;-67
2022/08/17 10:28:54;;;;;;;5.10;4.60;;;;;;;39.36;36.45;99734.58;117181;1183;21894;-67
2022/08/17 10:31:48;;;;;;;5.20;4.30;;;;;;;38.84;38.60;99737.89;117013;1183;21858;-67
2022/08/17 10:34:34;;;;;;;9.50;4.60;;;;;;;38.58;38.96;99736.30;117170;1186;21866;-61
2022/08/17 10:37:20;;;;;;;9.00;5.50;;;;;;;38.27;38.14;99730.74;117173;1185;22167;-67
2022/08/17 10:39:50;;;;;;;6.50;4.80;;;;;;;37.78;38.06;99725.61;117141;1185;22925;-62
2022/08/17 10:42:35;;;;;;;7.00;5.20;;;;;;;37.19;37.46;99721.02;117167;1188;21864;-67
2022/08/17 10:45:52;;;;;;;6.10;5.00;;;;;;;36.47;37.90;99719.73;117277;1185;21845;-61
2022/08/17 10:48:39;;;;;;;6.10;5.40;;;;;;;35.76;38.92;99726.88;117222;1183;22946;-62
2022/08/17 10:51:11;;;;;;;11.40;5.60;;;;;;;35.37;39.45;99732.76;117051;1187;22940;-61
2022/08/17 10:53:42;;;;;;;11.90;5.90;;;;;;;34.99;40.15;99739.12;117137;1184;22652;-67
2022/08/17 10:56:12;;;;;;;10.30;5.50;;;;;;;34.54;41.37;99754.09;117091;1186;21858;-66
2022/08/17 10:58:55;;;;;;;;;;;;;;;33.99;42.12;99770.39;117107;1188;22928;-64
2022/08/17 11:01:31;;;;;;;11.10;7.00;;;;;;;33.31;43.02;99775.81;117094;1188;23453;-66
2022/08/17 11:04:16;;;;;;;8.20;6.70;;;;;;;32.70;43.79;99770.70;117090;1187;21855;-66
2022/08/17 11:06:50;;;;;;;10.20;6.30;;;;;;;32.27;44.30;99763.25;117126;1185;23452;-62
2022/08/17 11:09:30;;;;;;;13.00;7.40;;;;;;;32.02;45.15;99764.78;117175;1189;21928;-62
2022/08/17 11:12:25;;;;;;;11.60;6.80;;;;;;;31.62;45.63;99760.91;117115;1188;21863;-62
2022/08/17 11:15:23;;;;;;;19.60;6.20;;;;;;;31.03;46.01;99763.13;117276;1186;23628;-61
2022/08/17 11:18:13;;;;;;;8.00;4.80;;;;;;;30.37;47.03;99765.09;117322;1185;21949;-67
2022/08/17 11:20:58;;;;;;;15.70;6.10;;;;;;;29.73;47.90;99766.59;117069;1183;22651;-60
2022/08/17 11:23:53;;;;;;;27.80;9.30;;;;;;;29.19;48.27;99766.05;117011;1187;21861;-60
2022/08/17 11:26:26;;;;;;;17.30;7.80;;;;;;;28.76;48.64;99765.02;117110;1186;23678;-59
2022/08/17 11:29:00;;;;;;;11.00;6.10;;;;;;;28.46;49.60;99764.51;117054;1185;24173;-67
2022/08/17 11:31:39;;;;;;;9.90;6.60;;;;;;;28.18;50.44;99763.45;117261;1182;21920;-67
2022/08/17 11:34:17;;;;;;;12.00;6.70;;;;;;;27.84;50.57;99757.25;117001;1186;21862;-63
2022/08/17 11:36:47;;;;;;;12.00;6.60;;;;;;;27.68;50.73;99758.22;117662;1185;21866;-60
2022/08/17 11:39:36;;;;;;;10.20;6.20;;;;;;;27.66;51.01;99760.70;117034;1187;24793;-67
2022/08/17 11:42:10;;;;;;;7.00;5.20;;;;;;;27.58;51.68;99770.27;117375;1184;21856;-67
2022/08/17 11:44:55;;;;;;;10.50;6.60;;;;;;;27.48;52.67;99780.55;117185;1186;21874;-67
2022/08/17 11:53:44;;;;;;;11.90;6.40;;;;;;;27.33;52.57;99787.41;117180;1183;23634;-60
2022/08/17 11:56:36;;;;;;;8.40;5.80;;;;;;;27.40;52.83;99789.73;117365;1183;21891;-61
2022/08/17 11:59:39;;;;;;;7.90;6.50;;;;;;;27.50;53.16;99784.79;117175;1185;23633;-60
2022/08/17 12:02:19;;;;;;;8.40;5.90;;;;;;;27.58;53.37;99769.52;116977;1186;22928;-67
2022/08/17 12:05:11;;;;;;;7.20;6.10;;;;;;;27.68;53.67;99763.23;117080;1184;23373;-60
2022/08/17 12:07:50;;;;;;;9.10;6.10;;;;;;;27.74;53.66;99762.54;117382;1185;21860;-67
2022/08/17 12:10:20;;;;;;;;;;;;;;;27.76;53.66;99762.88;117143;1186;21945;-67
2022/08/17 12:12:47;;;;;;;7.00;5.60;;;;;;;27.81;53.59;99761.64;117167;1186;23015;-67
2022/08/17 12:15:20;;;;;;;8.30;7.00;;;;;;;27.88;53.63;99758.83;117029;1186;23579;-60
2022/08/17 12:17:52;;;;;;;6.90;6.00;;;;;;;27.94;54.05;99766.02;117311;1182;22929;-67
2022/08/17 12:20:22;;;;;;;6.80;6.00;;;;;;;27.98;53.71;99769.11;117396;1185;22142;-59
2022/08/17 12:22:59;;;;;;;6.70;5.50;;;;;;;27.98;53.80;99776.68;117291;1185;23535;-68
2022/08/17 12:25:36;;;;;;;6.80;5.50;;;;;;;27.94;53.88;99781.73;117117;1183;22631;-59
2022/08/17 12:28:04;;;;;;;6.60;5.20;;;;;;;27.86;54.16;99779.20;117087;1184;22932;-68
2022/08/17 12:30:33;;;;;;;6.40;4.50;;;;;;;27.80;53.83;99775.45;117160;1185;21953;-68